createdAt,value
2022-10-12T00:02:07.983Z,102190.72
2022-10-12T00:04:34.669Z,102184.22
2022-10-12T00:07:01.335Z,102183.69
2022-10-12T00:09:28.003Z,102174.13
2022-10-12T00:11:54.677Z,102179.19
2022-10-12T00:14:21.367Z,102178.63
2022-10-12T00:16:47.965Z,102171.34
2022-10-12T00:19:14.638Z,102182.00
2022-10-12T00:21:41.715Z,102174.69
2022-10-12T00:24:09.557Z,102180.31
2022-10-12T00:26:36.132Z,102176.38
2022-10-12T00:29:03.166Z,102167.09
2022-10-12T00:31:30.442Z,102179.47
2022-10-12T00:34:00.120Z,102176.38
2022-10-12T00:36:28.744Z,102182.28
2022-10-12T00:38:55.977Z,102174.41
2022-10-12T00:41:24.176Z,102168.81
2022-10-12T00:43:56.774Z,102171.63
2022-10-12T00:46:24.681Z,102166.00
2022-10-12T00:48:54.501Z,102167.09
2022-10-12T00:51:22.691Z,102165.41
2022-10-12T00:53:53.594Z,102164.28
2022-10-12T00:56:22.475Z,102164.59
2022-10-12T00:58:49.664Z,102164.88
2022-10-12T01:01:17.091Z,102167.69
2022-10-12T01:03:44.010Z,102160.38
2022-10-12T01:06:10.943Z,102158.41
2022-10-12T01:08:38.164Z,102155.88
2022-10-12T01:11:04.986Z,102162.66
2022-10-12T01:13:32.240Z,102157.84
2022-10-12T01:16:01.778Z,102156.19
2022-10-12T01:18:28.405Z,102159.00
2022-10-12T01:21:10.189Z,102154.50
2022-10-12T01:23:36.750Z,102144.63
2022-10-12T01:26:15.330Z,102149.44
2022-10-12T01:28:49.791Z,102146.91
2022-10-12T01:31:32.776Z,102142.41
2022-10-12T01:34:07.675Z,102140.72
2022-10-12T01:36:39.539Z,102134.25
2022-10-12T01:39:24.187Z,102135.41
2022-10-12T01:41:56.029Z,102137.63
2022-10-12T01:44:24.231Z,102140.44
2022-10-12T01:46:51.834Z,102144.38
2022-10-12T01:49:21.309Z,102135.94
2022-10-12T01:51:53.777Z,102134.56
2022-10-12T01:54:34.952Z,102129.22
2022-10-12T01:57:19.873Z,102133.13
2022-10-12T01:59:54.100Z,102129.50
2022-10-12T02:02:39.591Z,102132.88
2022-10-12T02:05:26.676Z,102137.66
2022-10-12T02:08:15.129Z,102132.34
2022-10-12T02:10:51.741Z,102123.06
2022-10-12T02:13:23.391Z,102119.41
2022-10-12T02:15:51.327Z,102124.44
2022-10-12T02:18:19.979Z,102123.56
2022-10-12T02:20:53.993Z,102120.22
2022-10-12T02:23:23.152Z,102123.31
2022-10-12T02:25:57.362Z,102113.19
2022-10-12T02:28:28.994Z,102112.38
2022-10-12T02:31:10.759Z,102106.19
2022-10-12T02:33:47.490Z,102110.09
2022-10-12T02:36:20.309Z,102108.41
2022-10-12T02:38:51.200Z,102101.13
2022-10-12T02:41:23.700Z,102098.59
2022-10-12T02:44:05.885Z,102097.75
2022-10-12T02:46:33.779Z,102100.84
2022-10-12T02:49:12.474Z,102092.72
2022-10-12T02:51:41.088Z,102089.31
2022-10-12T02:54:16.976Z,102094.09
2022-10-12T02:56:47.892Z,102097.22
2022-10-12T02:59:22.665Z,102086.25
2022-10-12T03:01:50.754Z,102086.53
2022-10-12T03:04:17.786Z,102088.47
2022-10-12T03:06:44.715Z,102084.84
2022-10-12T03:09:13.033Z,102085.13
2022-10-12T03:11:44.040Z,102087.94
2022-10-12T03:14:16.493Z,102080.09
2022-10-12T03:16:44.599Z,102077.28
2022-10-12T03:19:34.150Z,102077.28
2022-10-12T03:22:01.863Z,102065.19
2022-10-12T03:24:31.627Z,102072.22
2022-10-12T03:26:58.434Z,102065.75
2022-10-12T03:29:25.434Z,102064.91
2022-10-12T03:31:52.823Z,102066.03
2022-10-12T03:34:21.346Z,102059.59
2022-10-12T03:36:48.193Z,102060.69
2022-10-12T03:39:15.140Z,102061.81
2022-10-12T03:41:41.982Z,102054.50
2022-10-12T03:44:09.215Z,102057.31
2022-10-12T03:46:37.173Z,102046.09
2022-10-12T03:49:15.234Z,102041.63
2022-10-12T03:51:41.976Z,102037.97
2022-10-12T03:54:08.709Z,102037.97
2022-10-12T03:56:35.429Z,102034.31
2022-10-12T03:59:07.635Z,102036.28
2022-10-12T04:01:34.361Z,102031.78
2022-10-12T04:04:01.039Z,102038.53
2022-10-12T04:06:27.659Z,102032.09
2022-10-12T04:08:54.270Z,102029.53
2022-10-12T04:11:20.861Z,102023.94
2022-10-12T04:13:47.729Z,102027.59
2022-10-12T04:16:14.484Z,102022.53
2022-10-12T04:18:41.181Z,102020.56
2022-10-12T04:21:10.752Z,102023.66
2022-10-12T04:23:37.349Z,102005.97
2022-10-12T04:26:03.906Z,101997.81
2022-10-12T04:28:30.525Z,101999.50
2022-10-12T04:30:57.273Z,101991.34
2022-10-12T04:33:23.863Z,101990.50
2022-10-12T04:35:50.517Z,102000.34
2022-10-12T04:38:17.080Z,101989.13
2022-10-12T04:40:48.109Z,102000.63
2022-10-12T04:43:15.054Z,101990.53
2022-10-12T04:45:41.909Z,101998.13
2022-10-12T04:48:08.594Z,101993.63
2022-10-12T04:50:35.463Z,101989.97
2022-10-12T04:53:02.079Z,101993.91
2022-10-12T04:55:28.678Z,101990.25
2022-10-12T04:57:55.321Z,101995.84
2022-10-12T05:00:21.887Z,101997.81
2022-10-12T05:02:48.519Z,101992.22
2022-10-12T05:05:15.163Z,101992.50
2022-10-12T05:07:41.733Z,101996.97
2022-10-12T05:10:08.508Z,101996.97
2022-10-12T05:12:35.331Z,101991.66
2022-10-12T05:15:02.042Z,102000.34
2022-10-12T05:17:28.667Z,102001.47
2022-10-12T05:19:55.441Z,102003.09
2022-10-12T05:22:22.173Z,102004.78
2022-10-12T05:24:53.485Z,102001.97
2022-10-12T05:27:21.169Z,102001.94
2022-10-12T05:29:47.914Z,101996.31
2022-10-12T05:32:14.709Z,101988.72
2022-10-12T05:34:42.541Z,101978.59
2022-10-12T05:37:09.523Z,101974.09
2022-10-12T05:39:37.415Z,101980.53
2022-10-12T05:42:04.314Z,101977.69
2022-10-12T05:44:31.261Z,101977.66
2022-10-12T05:46:57.988Z,101970.06
2022-10-12T05:49:24.689Z,101970.88
2022-10-12T05:51:51.396Z,101970.84
2022-10-12T05:54:18.000Z,101964.34
2022-10-12T05:56:44.540Z,101967.13
2022-10-12T05:59:12.741Z,101975.53
2022-10-12T06:01:39.607Z,101975.78
2022-10-12T06:04:06.445Z,101975.19
2022-10-12T06:06:33.145Z,101965.88
2022-10-12T06:08:59.797Z,101975.72
2022-10-12T06:11:26.427Z,101975.16
2022-10-12T06:13:54.704Z,101962.44
2022-10-12T06:16:21.302Z,101969.47
2022-10-12T06:18:47.909Z,101965.22
2022-10-12T06:21:32.314Z,101965.47
2022-10-12T06:23:59.866Z,101964.06
2022-10-12T06:26:26.421Z,101965.78
2022-10-12T06:28:53.121Z,101959.84
2022-10-12T06:31:19.898Z,101961.53
2022-10-12T06:33:46.460Z,101966.03
2022-10-12T06:36:13.096Z,101962.94
2022-10-12T06:38:39.792Z,101960.94
2022-10-12T06:41:06.388Z,101961.78
2022-10-12T06:43:32.971Z,101961.50
2022-10-12T06:46:01.459Z,101962.63
2022-10-12T06:48:28.561Z,101955.31
2022-10-12T06:50:55.286Z,101954.50
2022-10-12T06:53:22.375Z,101960.13
2022-10-12T06:55:49.466Z,101951.69
2022-10-12T06:58:16.144Z,101963.22
2022-10-12T07:00:42.712Z,101956.75
2022-10-12T07:03:11.314Z,101951.97
2022-10-12T07:05:37.952Z,101954.78
2022-10-12T07:08:04.582Z,101952.81
2022-10-12T07:10:31.544Z,101955.63
2022-10-12T07:12:58.812Z,101949.16
2022-10-12T07:15:25.424Z,101954.50
2022-10-12T07:17:52.058Z,101951.69
2022-10-12T07:20:18.693Z,101947.72
2022-10-12T07:22:45.263Z,101950.53
2022-10-12T07:25:11.847Z,101946.88
2022-10-12T07:27:38.639Z,101948.88
2022-10-12T07:30:05.840Z,101957.84
2022-10-12T07:32:32.413Z,101954.19
2022-10-12T07:34:59.015Z,101957.00
2022-10-12T07:37:25.640Z,101948.56
2022-10-12T07:39:57.356Z,101954.97
2022-10-12T07:42:24.704Z,101950.78
2022-10-12T07:44:51.313Z,101954.13
2022-10-12T07:47:19.556Z,101954.44
2022-10-12T07:49:46.520Z,101944.31
2022-10-12T07:52:13.314Z,101948.28
2022-10-12T07:54:40.717Z,101952.22
2022-10-12T07:57:08.231Z,101945.75
2022-10-12T07:59:34.798Z,101935.59
2022-10-12T08:02:01.496Z,101937.06
2022-10-12T08:04:28.137Z,101939.03
2022-10-12T08:06:55.535Z,101935.38
2022-10-12T08:09:22.142Z,101937.34
2022-10-12T08:11:48.735Z,101943.28
2022-10-12T08:14:16.673Z,101930.31
2022-10-12T08:16:43.926Z,101925.28
2022-10-12T08:19:12.403Z,101930.91
2022-10-12T08:21:39.316Z,101923.88
2022-10-12T08:24:06.062Z,101925.84
2022-10-12T08:26:33.412Z,101929.50
2022-10-12T08:29:13.197Z,101923.59
2022-10-12T08:31:39.902Z,101908.66
2022-10-12T08:34:06.496Z,101910.94
2022-10-12T08:36:33.163Z,101924.72
2022-10-12T08:38:59.933Z,101918.81
2022-10-12T08:41:32.515Z,101920.16
2022-10-12T08:44:11.904Z,101912.00
2022-10-12T08:46:39.923Z,101906.69
2022-10-12T08:49:20.301Z,101907.53
2022-10-12T08:51:52.432Z,101896.53
2022-10-12T08:54:29.078Z,101908.66
2022-10-12T08:56:56.343Z,101912.81
2022-10-12T08:59:26.455Z,101905.44
2022-10-12T09:01:53.246Z,101902.13
2022-10-12T09:04:38.607Z,101897.94
2022-10-12T09:07:05.144Z,101907.78
2022-10-12T09:09:34.805Z,101902.72
2022-10-12T09:12:20.155Z,101906.09
2022-10-12T09:14:47.624Z,101904.66
2022-10-12T09:17:41.289Z,101900.72
2022-10-12T09:20:16.106Z,101899.59
2022-10-12T09:22:45.682Z,101890.84
2022-10-12T09:25:14.058Z,101893.66
2022-10-12T09:27:45.064Z,101891.69
2022-10-12T09:30:14.143Z,101884.06
2022-10-12T09:33:01.075Z,101889.69
2022-10-12T09:35:27.709Z,101898.13
2022-10-12T09:37:54.406Z,101896.47
2022-10-12T09:40:25.972Z,101904.38
2022-10-12T09:42:54.043Z,101902.63
2022-10-12T09:45:21.825Z,101904.94
2022-10-12T09:48:06.902Z,101901.78
2022-10-12T09:50:59.613Z,101906.00
2022-10-12T09:53:29.022Z,101901.22
2022-10-12T09:55:58.090Z,101900.13
2022-10-12T09:58:25.782Z,101904.09
2022-10-12T10:01:10.963Z,101907.19
2022-10-12T10:03:37.645Z,101894.78
2022-10-12T10:06:04.977Z,101902.94
2022-10-12T10:08:39.654Z,101904.59
2022-10-12T10:11:06.440Z,101906.56
2022-10-12T10:13:33.671Z,101909.09
2022-10-12T10:16:04.382Z,101912.75
2022-10-12T10:18:35.285Z,101915.59
2022-10-12T10:21:06.311Z,101910.22
2022-10-12T10:23:37.516Z,101910.22
2022-10-12T10:26:04.199Z,101909.41
2022-10-12T10:28:32.340Z,101906.91
2022-10-12T10:30:59.478Z,101911.69
2022-10-12T10:33:26.586Z,101914.22
2022-10-12T10:36:35.045Z,101909.72
2022-10-12T10:39:32.957Z,101901.56
2022-10-12T10:42:10.551Z,101907.47
2022-10-12T10:44:37.734Z,101913.41
2022-10-12T10:47:09.407Z,101902.72
2022-10-12T10:49:36.058Z,101889.50
2022-10-12T10:52:03.058Z,101890.66
2022-10-12T10:54:31.504Z,101887.84
2022-10-12T10:57:03.524Z,101882.47
2022-10-12T10:59:36.400Z,101868.41
2022-10-12T11:02:08.764Z,101868.69
2022-10-12T11:04:40.086Z,101857.75
2022-10-12T11:07:26.754Z,101836.03
2022-10-12T11:09:58.944Z,101837.22
2022-10-12T11:12:31.234Z,101840.03
2022-10-12T11:15:13.042Z,101842.00
2022-10-12T11:17:44.189Z,101835.22
2022-10-12T11:20:29.927Z,101815.22
2022-10-12T11:23:04.174Z,101816.34
2022-10-12T11:25:38.669Z,101798.66
2022-10-12T11:28:06.903Z,101804.28
2022-10-12T11:30:44.140Z,101800.91
2022-10-12T11:33:15.694Z,101808.78
2022-10-12T11:35:44.355Z,101804.84
2022-10-12T11:38:16.776Z,101804.84
2022-10-12T11:41:35.005Z,101801.19
2022-10-12T11:44:04.193Z,101805.97
2022-10-12T11:46:34.659Z,101802.34
2022-10-12T11:49:23.356Z,101799.84
2022-10-12T11:51:51.895Z,101814.50
2022-10-12T11:54:38.781Z,101816.16
2022-10-12T11:57:10.431Z,101818.97
2022-10-12T11:59:46.811Z,101814.50
2022-10-12T12:02:23.495Z,101800.44
2022-10-12T12:04:51.066Z,101804.91
2022-10-12T12:07:36.527Z,101807.44
2022-10-12T12:10:23.138Z,101816.72
2022-10-12T12:13:11.431Z,101815.59
2022-10-12T12:15:39.168Z,101809.97
2022-10-12T12:18:16.295Z,101792.75
2022-10-12T12:20:43.301Z,101777.28
2022-10-12T12:23:18.918Z,101788.22
2022-10-12T12:25:45.714Z,101784.84
2022-10-12T12:28:19.210Z,101776.94
2022-10-12T12:30:57.155Z,101767.38
2022-10-12T12:33:23.799Z,101759.47
2022-10-12T12:35:55.477Z,101755.94
2022-10-12T12:38:24.848Z,101742.50
2022-10-12T12:40:56.210Z,101746.38
2022-10-12T12:43:28.900Z,101745.50
2022-10-12T12:45:59.720Z,101744.06
2022-10-12T12:48:41.730Z,101742.66
2022-10-12T12:51:13.029Z,101736.22
2022-10-12T12:53:51.606Z,101731.41
2022-10-12T12:56:33.215Z,101718.50
2022-10-12T12:59:22.006Z,101714.00
2022-10-12T13:02:12.919Z,101717.66
2022-10-12T13:04:59.347Z,101724.41
2022-10-12T13:08:03.132Z,101724.41
2022-10-12T13:10:31.234Z,101709.50
2022-10-12T13:13:01.074Z,101707.81
2022-10-12T13:15:36.651Z,101716.25
2022-10-12T13:18:18.486Z,101713.44
2022-10-12T13:20:47.151Z,101708.97
2022-10-12T13:23:16.728Z,101712.09
2022-10-12T13:25:48.412Z,101719.69
2022-10-12T13:28:23.672Z,101715.75
2022-10-12T13:30:50.288Z,101715.19
2022-10-12T13:33:31.320Z,101711.53
2022-10-12T13:36:02.742Z,101704.25
2022-10-12T13:38:30.667Z,101694.13
2022-10-12T13:41:02.700Z,101698.63
2022-10-12T13:43:34.654Z,101689.63
2022-10-12T13:46:01.727Z,101679.50
2022-10-12T13:48:53.920Z,101684.63
2022-10-12T13:51:21.639Z,101675.00
2022-10-12T13:53:48.364Z,101685.53
2022-10-12T13:56:25.293Z,101676.47
2022-10-12T13:59:18.830Z,101682.38
2022-10-12T14:01:57.028Z,101675.91
2022-10-12T14:04:27.404Z,101673.09
2022-10-12T14:06:57.243Z,101677.06
2022-10-12T14:09:28.462Z,101672.28
2022-10-12T14:11:55.934Z,101670.91
2022-10-12T14:14:34.472Z,101670.06
2022-10-12T14:17:01.377Z,101682.16
2022-10-12T14:19:36.360Z,101667.56
2022-10-12T14:22:03.342Z,101676.00
2022-10-12T14:24:30.297Z,101676.00
2022-10-12T14:27:01.081Z,101672.34
2022-10-12T14:29:30.729Z,101670.97
2022-10-12T14:31:58.674Z,101675.75
2022-10-12T14:34:28.123Z,101665.66
2022-10-12T14:37:05.335Z,101678.34
2022-10-12T14:39:32.381Z,101669.88
2022-10-12T14:42:02.685Z,101657.78
2022-10-12T14:44:29.522Z,101656.94
2022-10-12T14:47:04.264Z,101656.09
2022-10-12T14:49:41.475Z,101653.91
2022-10-12T14:52:15.142Z,101649.13
2022-10-12T14:54:41.744Z,101649.41
2022-10-12T14:57:16.123Z,101654.19
2022-10-12T14:59:42.701Z,101651.72
2022-10-12T15:02:19.646Z,101646.38
2022-10-12T15:04:46.687Z,101643.03
2022-10-12T15:07:33.545Z,101644.16
2022-10-12T15:10:00.741Z,101642.19
2022-10-12T15:12:29.427Z,101642.47
2022-10-12T15:14:56.644Z,101638.28
2022-10-12T15:17:23.289Z,101632.66
2022-10-12T15:19:50.743Z,101632.66
2022-10-12T15:22:24.688Z,101630.97
2022-10-12T15:24:51.844Z,101632.09
2022-10-12T15:27:18.656Z,101626.78
2022-10-12T15:29:45.941Z,101623.44
2022-10-12T15:32:13.173Z,101622.88
2022-10-12T15:34:40.025Z,101618.38
2022-10-12T15:37:09.288Z,101617.59
2022-10-12T15:39:36.457Z,101613.09
2022-10-12T15:42:03.279Z,101606.06
2022-10-12T15:44:29.902Z,101612.53
2022-10-12T15:46:56.531Z,101595.97
2022-10-12T15:49:24.583Z,101600.44
2022-10-12T15:51:52.831Z,101597.94
2022-10-12T15:54:19.581Z,101599.91
2022-10-12T15:56:46.298Z,101594.59
2022-10-12T15:59:13.347Z,101586.44
2022-10-12T16:01:40.174Z,101590.41
2022-10-12T16:04:07.151Z,101588.72
2022-10-12T16:06:33.999Z,101583.09
2022-10-12T16:09:14.139Z,101591.84
2022-10-12T16:11:40.733Z,101584.53
2022-10-12T16:14:07.450Z,101576.41
2022-10-12T16:16:34.070Z,101577.53
2022-10-12T16:19:01.441Z,101575.88
2022-10-12T16:21:28.130Z,101577.00
2022-10-12T16:23:54.817Z,101576.47
2022-10-12T16:26:21.771Z,101573.94
2022-10-12T16:28:48.544Z,101570.63
2022-10-12T16:31:16.285Z,101568.09
2022-10-12T16:33:43.093Z,101563.59
2022-10-12T16:36:10.759Z,101573.16
2022-10-12T16:38:37.536Z,101566.75
2022-10-12T16:41:13.977Z,101567.03
2022-10-12T16:43:40.744Z,101565.34
2022-10-12T16:46:08.095Z,101568.16
2022-10-12T16:48:35.060Z,101567.63
2022-10-12T16:51:01.816Z,101565.97
2022-10-12T16:53:28.435Z,101561.47
2022-10-12T16:55:55.127Z,101564.88
2022-10-12T16:58:21.799Z,101556.44
2022-10-12T17:00:48.492Z,101558.72
2022-10-12T17:03:15.438Z,101563.50
2022-10-12T17:05:42.490Z,101564.63
2022-10-12T17:08:14.163Z,101563.25
2022-10-12T17:10:43.220Z,101568.88
2022-10-12T17:13:10.067Z,101569.16
2022-10-12T17:15:39.305Z,101579.91
2022-10-12T17:18:06.001Z,101570.06
2022-10-12T17:20:32.590Z,101574.84
2022-10-12T17:22:59.159Z,101584.44
2022-10-12T17:25:25.804Z,101588.38
2022-10-12T17:27:52.456Z,101586.69
2022-10-12T17:30:19.052Z,101590.63
2022-10-12T17:32:45.693Z,101585.34
2022-10-12T17:35:12.512Z,101579.16
2022-10-12T17:37:39.187Z,101583.94
2022-10-12T17:40:06.155Z,101578.31
2022-10-12T17:42:32.761Z,101575.81
2022-10-12T17:44:59.354Z,101574.16
2022-10-12T17:47:26.004Z,101567.69
2022-10-12T17:49:52.598Z,101573.59
2022-10-12T17:52:19.419Z,101570.78
2022-10-12T17:54:46.243Z,101555.03
2022-10-12T17:57:12.823Z,101557.06
2022-10-12T17:59:39.435Z,101559.03
2022-10-12T18:02:09.387Z,101562.97
2022-10-12T18:04:36.327Z,101568.88
2022-10-12T18:07:03.062Z,101568.03
2022-10-12T18:09:29.628Z,101565.50
2022-10-12T18:11:56.203Z,101584.31
2022-10-12T18:14:22.863Z,101593.88
2022-10-12T18:16:49.500Z,101592.19
2022-10-12T18:19:16.087Z,101586.91
2022-10-12T18:21:42.696Z,101593.66
2022-10-12T18:24:16.770Z,101590.84
2022-10-12T18:26:47.476Z,101593.66
2022-10-12T18:29:16.346Z,101592.81
2022-10-12T18:31:42.937Z,101590.00
2022-10-12T18:34:09.573Z,101600.09
2022-10-12T18:36:36.169Z,101604.56
2022-10-12T18:39:06.656Z,101604.00
2022-10-12T18:41:33.286Z,101589.38
2022-10-12T18:44:00.754Z,101590.22
2022-10-12T18:46:28.591Z,101596.38
2022-10-12T18:48:55.487Z,101595.22
2022-10-12T18:51:22.082Z,101594.94
2022-10-12T18:53:48.682Z,101593.81
2022-10-12T18:56:15.413Z,101602.50
2022-10-12T18:58:42.364Z,101597.09
2022-10-12T19:01:13.172Z,101591.72
2022-10-12T19:03:42.758Z,101590.81
2022-10-12T19:06:12.772Z,101589.13
2022-10-12T19:08:39.785Z,101588.50
2022-10-12T19:11:08.333Z,101585.63
2022-10-12T19:13:35.923Z,101579.41
2022-10-12T19:16:06.631Z,101575.69
2022-10-12T19:18:33.255Z,101580.41
2022-10-12T19:21:03.961Z,101587.09
2022-10-12T19:23:30.585Z,101584.53
2022-10-12T19:25:57.357Z,101578.31
2022-10-12T19:28:24.018Z,101582.19
2022-10-12T19:30:50.711Z,101575.13
2022-10-12T19:33:17.421Z,101567.22
2022-10-12T19:35:44.021Z,101570.28
2022-10-12T19:38:10.615Z,101571.97
2022-10-12T19:40:38.109Z,101565.72
2022-10-12T19:43:04.801Z,101561.78
2022-10-12T19:45:31.419Z,101572.72
2022-10-12T19:47:58.107Z,101576.06
2022-10-12T19:50:34.159Z,101574.09
2022-10-12T19:53:00.948Z,101575.78
2022-10-12T19:55:27.648Z,101574.94
2022-10-12T19:57:54.464Z,101580.28
2022-10-12T20:00:21.079Z,101583.09
2022-10-12T20:02:47.704Z,101576.63
2022-10-12T20:05:14.296Z,101585.91
2022-10-12T20:07:40.907Z,101584.47
2022-10-12T20:10:07.724Z,101585.31
2022-10-12T20:12:57.002Z,101584.19
2022-10-12T20:15:23.611Z,101579.38
2022-10-12T20:17:50.210Z,101572.59
2022-10-12T20:20:16.859Z,101569.78
2022-10-12T20:22:43.515Z,101566.97
2022-10-12T20:25:10.219Z,101566.69
2022-10-12T20:27:37.044Z,101575.13
2022-10-12T20:30:04.347Z,101561.03
2022-10-12T20:32:31.095Z,101563.88
2022-10-12T20:34:57.696Z,101563.56
2022-10-12T20:37:24.468Z,101568.34
2022-10-12T20:39:51.795Z,101568.13
2022-10-12T20:42:21.715Z,101568.66
2022-10-12T20:44:48.840Z,101568.97
2022-10-12T20:47:15.674Z,101571.78
2022-10-12T20:49:42.481Z,101572.59
2022-10-12T20:52:09.312Z,101571.47
2022-10-12T20:54:36.432Z,101588.34
2022-10-12T20:57:04.512Z,101581.88
2022-10-12T20:59:31.438Z,101587.22
2022-10-12T21:01:58.128Z,101576.78
2022-10-12T21:04:25.642Z,101577.63
2022-10-12T21:06:52.547Z,101578.78
2022-10-12T21:09:19.353Z,101577.09
2022-10-12T21:11:45.963Z,101581.03
2022-10-12T21:14:15.937Z,101584.69
2022-10-12T21:16:42.571Z,101566.16
2022-10-12T21:19:15.417Z,101573.44
2022-10-12T21:21:42.230Z,101575.41
2022-10-12T21:24:10.075Z,101568.97
2022-10-12T21:26:36.832Z,101565.59
2022-10-12T21:29:13.927Z,101573.75
2022-10-12T21:31:40.525Z,101578.53
2022-10-12T21:34:07.691Z,101579.13
2022-10-12T21:36:38.496Z,101584.47
2022-10-12T21:39:18.050Z,101580.81
2022-10-12T21:41:44.657Z,101574.34
2022-10-12T21:44:11.894Z,101576.63
2022-10-12T21:46:38.905Z,101567.06
2022-10-12T21:49:12.601Z,101576.63
2022-10-12T21:51:39.640Z,101571.84
2022-10-12T21:54:06.837Z,101565.91
2022-10-12T21:56:35.512Z,101568.72
2022-10-12T21:59:07.697Z,101571.84
2022-10-12T22:01:36.137Z,101564.25
2022-10-12T22:04:12.269Z,101565.38
2022-10-12T22:06:39.600Z,101558.88
2022-10-12T22:09:15.788Z,101565.66
2022-10-12T22:11:43.838Z,101549.38
2022-10-12T22:14:14.811Z,101549.38
2022-10-12T22:16:43.609Z,101544.88
2022-10-12T22:19:18.060Z,101539.25
2022-10-12T22:21:45.111Z,101544.34
2022-10-12T22:24:12.052Z,101535.91
2022-10-12T22:26:40.098Z,101543.81
2022-10-12T22:29:08.842Z,101541.31
2022-10-12T22:31:38.031Z,101545.25
2022-10-12T22:34:05.799Z,101544.44
2022-10-12T22:36:33.305Z,101547.53
2022-10-12T22:39:09.997Z,101547.53
2022-10-12T22:41:36.626Z,101548.97
2022-10-12T22:44:03.321Z,101553.25
2022-10-12T22:46:29.940Z,101550.44
2022-10-12T22:48:56.570Z,101552.41
2022-10-12T22:51:30.067Z,101545.63
2022-10-12T22:53:56.655Z,101552.41
2022-10-12T22:56:23.237Z,101550.72
2022-10-12T22:58:53.983Z,101547.91
2022-10-12T23:01:20.837Z,101553.53
2022-10-12T23:03:47.519Z,101553.53
2022-10-12T23:06:14.649Z,101541.75
2022-10-12T23:08:41.256Z,101546.53
2022-10-12T23:11:09.130Z,101546.53
2022-10-12T23:13:36.317Z,101547.38
2022-10-12T23:16:10.667Z,101541.22
2022-10-12T23:18:37.251Z,101541.22
2022-10-12T23:21:05.710Z,101546.84
2022-10-12T23:23:33.865Z,101544.34
2022-10-12T23:26:01.619Z,101548.28
2022-10-12T23:28:28.509Z,101534.22
2022-10-12T23:30:55.110Z,101526.91
2022-10-12T23:33:21.886Z,101534.53
2022-10-12T23:35:58.657Z,101542.13
2022-10-12T23:38:25.767Z,101543.25
2022-10-12T23:40:52.386Z,101548.06
2022-10-12T23:43:19.033Z,101545.53
2022-10-12T23:45:45.613Z,101550.31
2022-10-12T23:48:12.680Z,101557.91
2022-10-12T23:50:39.606Z,101545.00
2022-10-12T23:53:09.453Z,101538.84
2022-10-12T23:55:36.110Z,101536.03
2022-10-12T23:58:02.867Z,101540.81
